createdAt,value
2019-02-14T00:02:28.676Z,99.90
2019-02-14T00:05:15.925Z,99.90
2019-02-14T00:07:47.438Z,99.90
2019-02-14T00:10:26.357Z,99.90
2019-02-14T00:13:05.102Z,99.90
2019-02-14T00:15:43.582Z,99.90
2019-02-14T00:18:23.330Z,99.90
2019-02-14T00:21:01.931Z,99.90
2019-02-14T00:23:40.953Z,99.90
2019-02-14T00:26:19.949Z,99.90
2019-02-14T00:28:58.719Z,99.90
2019-02-14T00:31:37.964Z,99.90
2019-02-14T00:34:16.595Z,99.90
2019-02-14T00:36:55.053Z,99.90
2019-02-14T00:39:33.813Z,99.90
2019-02-14T00:42:12.133Z,99.90
2019-02-14T00:44:50.797Z,99.90
2019-02-14T00:47:29.800Z,99.90
2019-02-14T00:50:08.415Z,99.90
2019-02-14T00:52:46.930Z,99.90
2019-02-14T00:55:26.055Z,99.90
2019-02-14T01:00:44.394Z,99.90
2019-02-14T01:03:23.023Z,99.90
2019-02-14T01:06:01.663Z,99.90
2019-02-14T01:08:40.424Z,99.90
2019-02-14T01:11:19.610Z,99.90
2019-02-14T01:13:59.173Z,99.90
2019-02-14T01:16:37.806Z,99.90
2019-02-14T01:19:17.418Z,99.90
2019-02-14T01:21:57.217Z,99.90
2019-02-14T01:24:35.810Z,99.90
2019-02-14T01:27:14.931Z,99.90
2019-02-14T01:29:53.698Z,99.90
2019-02-14T01:32:32.449Z,99.90
2019-02-14T01:35:11.784Z,99.90
2019-02-14T01:37:50.465Z,99.90
2019-02-14T01:40:29.720Z,99.90
2019-02-14T01:43:08.304Z,99.90
2019-02-14T01:45:47.857Z,99.70
2019-02-14T01:48:26.713Z,99.20
2019-02-14T01:51:05.305Z,98.60
2019-02-14T01:53:44.184Z,99.00
2019-02-14T01:56:22.809Z,98.60
2019-02-14T01:59:02.132Z,98.30
2019-02-14T02:01:41.032Z,98.10
2019-02-14T02:04:19.718Z,97.60
2019-02-14T02:06:58.682Z,97.70
2019-02-14T02:09:37.600Z,97.00
2019-02-14T02:12:16.458Z,97.10
2019-02-14T02:14:55.424Z,96.60
2019-02-14T02:17:33.992Z,96.50
2019-02-14T02:20:14.369Z,96.70
2019-02-14T02:22:53.094Z,96.50
2019-02-14T02:25:32.197Z,96.80
2019-02-14T02:28:10.832Z,95.80
2019-02-14T02:30:49.533Z,95.40
2019-02-14T02:33:29.115Z,96.20
2019-02-14T02:36:07.757Z,95.60
2019-02-14T02:38:46.453Z,95.00
2019-02-14T02:41:25.562Z,94.30
2019-02-14T02:44:04.278Z,94.70
2019-02-14T02:46:43.174Z,94.20
2019-02-14T02:49:22.220Z,94.30
2019-02-14T02:52:00.810Z,94.20
2019-02-14T02:54:39.701Z,93.40
2019-02-14T02:57:18.742Z,93.70
2019-02-14T02:59:59.176Z,92.70
2019-02-14T03:02:37.779Z,92.00
2019-02-14T03:05:17.903Z,92.10
2019-02-14T03:07:56.688Z,91.30
2019-02-14T03:10:35.630Z,92.30
2019-02-14T03:13:14.298Z,91.70
2019-02-14T03:15:52.932Z,91.50
2019-02-14T03:18:31.594Z,90.90
2019-02-14T03:21:10.542Z,91.00
2019-02-14T03:23:49.229Z,90.90
2019-02-14T03:26:28.538Z,90.60
2019-02-14T03:29:07.551Z,91.50
2019-02-14T03:31:46.547Z,89.00
2019-02-14T03:34:25.467Z,85.70
2019-02-14T03:37:04.228Z,87.10
2019-02-14T03:39:43.031Z,85.60
2019-02-14T03:42:21.544Z,88.70
2019-02-14T03:45:01.225Z,83.50
2019-02-14T03:47:39.994Z,83.70
2019-02-14T03:50:19.336Z,86.80
2019-02-14T03:52:57.993Z,85.50
2019-02-14T03:55:36.554Z,85.50
2019-02-14T03:58:15.743Z,84.10
2019-02-14T04:00:54.902Z,82.50
2019-02-14T04:03:34.090Z,85.20
2019-02-14T04:06:12.853Z,82.10
2019-02-14T04:08:51.392Z,82.50
2019-02-14T04:11:30.560Z,78.00
2019-02-14T04:14:10.323Z,78.20
2019-02-14T04:16:49.041Z,80.90
2019-02-14T04:19:28.013Z,83.00
2019-02-14T04:22:07.218Z,80.00
2019-02-14T04:24:46.116Z,83.40
2019-02-14T04:27:24.780Z,81.90
2019-02-14T04:30:03.661Z,79.90
2019-02-14T04:32:42.939Z,78.30
2019-02-14T04:35:21.854Z,77.20
2019-02-14T04:38:01.029Z,76.90
2019-02-14T04:40:39.958Z,74.30
2019-02-14T04:43:18.552Z,75.70
2019-02-14T04:45:57.275Z,75.30
2019-02-14T04:48:36.410Z,73.50
2019-02-14T04:51:14.961Z,71.90
2019-02-14T04:53:53.397Z,72.90
2019-02-14T04:56:32.018Z,74.30
2019-02-14T04:59:10.845Z,74.20
2019-02-14T05:01:49.629Z,74.20
2019-02-14T05:04:28.525Z,73.60
2019-02-14T05:07:07.257Z,72.00
2019-02-14T05:09:45.820Z,70.70
2019-02-14T05:12:26.161Z,72.60
2019-02-14T05:15:04.208Z,72.10
2019-02-14T05:17:44.135Z,71.40
2019-02-14T05:20:23.062Z,67.40
2019-02-14T05:23:02.215Z,68.90
2019-02-14T05:25:40.839Z,71.00
2019-02-14T05:28:19.607Z,71.40
2019-02-14T05:30:58.137Z,69.70
2019-02-14T05:33:37.303Z,70.00
2019-02-14T05:36:15.867Z,72.30
2019-02-14T05:38:55.003Z,70.40
2019-02-14T05:41:33.605Z,68.60
2019-02-14T05:44:12.439Z,68.80
2019-02-14T05:46:50.764Z,69.30
2019-02-14T05:49:29.683Z,68.20
2019-02-14T05:52:08.248Z,68.90
2019-02-14T05:54:46.795Z,67.30
2019-02-14T05:57:27.432Z,69.20
2019-02-14T06:00:06.009Z,67.90
2019-02-14T06:02:46.178Z,69.80
2019-02-14T06:05:25.310Z,68.40
2019-02-14T06:08:04.121Z,69.80
2019-02-14T06:10:42.843Z,69.40
2019-02-14T06:13:21.782Z,68.50
2019-02-14T06:16:00.599Z,66.30
2019-02-14T06:18:39.412Z,68.70
2019-02-14T06:21:17.959Z,69.10
2019-02-14T06:23:57.243Z,65.20
2019-02-14T06:26:37.039Z,66.80
2019-02-14T06:29:15.772Z,67.30
2019-02-14T06:31:54.969Z,67.50
2019-02-14T06:34:33.684Z,67.80
2019-02-14T06:37:12.328Z,67.90
2019-02-14T06:39:51.416Z,68.20
2019-02-14T06:42:30.115Z,64.80
2019-02-14T06:45:09.159Z,66.20
2019-02-14T06:47:47.746Z,68.40
2019-02-14T06:50:34.453Z,67.10
2019-02-14T06:53:06.871Z,66.90
2019-02-14T06:55:45.551Z,66.20
2019-02-14T06:58:24.220Z,71.20
2019-02-14T07:01:04.406Z,67.20
2019-02-14T07:03:43.389Z,71.70
2019-02-14T07:06:23.138Z,73.10
2019-02-14T07:09:02.185Z,65.30
2019-02-14T07:11:41.142Z,69.10
2019-02-14T07:14:19.967Z,67.10
2019-02-14T07:16:58.659Z,63.90
2019-02-14T07:19:37.717Z,75.00
2019-02-14T07:22:16.369Z,69.20
2019-02-14T07:24:55.506Z,68.20
2019-02-14T07:27:34.199Z,65.80
2019-02-14T07:30:15.348Z,66.60
2019-02-14T07:32:53.805Z,67.40
2019-02-14T07:35:33.179Z,68.40
2019-02-14T07:38:12.724Z,67.40
2019-02-14T07:40:51.987Z,67.40
2019-02-14T07:43:30.778Z,65.00
2019-02-14T07:46:09.650Z,64.10
2019-02-14T07:48:47.921Z,67.30
2019-02-14T07:51:26.709Z,69.00
2019-02-14T07:54:05.131Z,64.10
2019-02-14T07:56:43.907Z,63.30
2019-02-14T07:59:22.982Z,70.10
2019-02-14T08:04:56.633Z,71.70
2019-02-14T08:07:36.160Z,73.20
2019-02-14T08:10:16.639Z,70.70
2019-02-14T08:12:56.216Z,65.10
2019-02-14T08:15:34.869Z,69.70
2019-02-14T08:18:13.728Z,69.40
2019-02-14T08:20:52.926Z,65.10
2019-02-14T08:23:31.817Z,64.40
2019-02-14T08:26:11.074Z,69.80
2019-02-14T08:28:49.935Z,64.90
2019-02-14T08:31:29.568Z,63.90
2019-02-14T08:34:08.464Z,68.30
2019-02-14T08:36:47.401Z,63.70
2019-02-14T08:39:27.342Z,63.30
2019-02-14T08:42:05.975Z,62.90
2019-02-14T08:44:44.563Z,69.90
2019-02-14T08:47:23.373Z,63.10
2019-02-14T08:50:02.641Z,63.50
2019-02-14T08:52:41.437Z,66.00
2019-02-14T08:55:20.608Z,65.40
2019-02-14T08:57:59.260Z,63.20
2019-02-14T09:00:38.160Z,65.50
2019-02-14T09:03:17.815Z,71.60
2019-02-14T09:05:56.475Z,65.20
2019-02-14T09:08:35.493Z,71.80
2019-02-14T09:11:14.993Z,77.00
2019-02-14T09:13:53.572Z,73.20
2019-02-14T09:16:32.858Z,68.50
2019-02-14T09:19:11.530Z,68.50
2019-02-14T09:21:50.487Z,67.90
2019-02-14T09:24:29.464Z,65.10
2019-02-14T09:27:08.383Z,67.40
2019-02-14T09:29:47.364Z,70.00
2019-02-14T09:32:28.750Z,73.80
2019-02-14T09:35:07.874Z,72.60
2019-02-14T09:37:46.597Z,67.00
2019-02-14T09:40:25.983Z,66.00
2019-02-14T09:43:05.175Z,67.20
2019-02-14T09:45:43.962Z,70.00
2019-02-14T09:48:22.961Z,69.80
2019-02-14T09:51:02.088Z,69.50
2019-02-14T09:53:40.755Z,76.70
2019-02-14T09:56:19.588Z,70.80
2019-02-14T09:58:58.244Z,69.00
2019-02-14T10:01:37.122Z,70.50
2019-02-14T10:04:15.674Z,67.00
2019-02-14T10:06:54.528Z,65.60
2019-02-14T10:09:33.091Z,66.10
2019-02-14T10:12:12.070Z,65.70
2019-02-14T10:14:50.404Z,65.40
2019-02-14T10:17:29.555Z,67.20
2019-02-14T10:20:08.511Z,67.50
2019-02-14T10:22:47.544Z,68.70
2019-02-14T10:25:26.293Z,72.60
2019-02-14T10:28:05.269Z,72.80
2019-02-14T10:30:43.908Z,72.90
2019-02-14T10:33:22.756Z,72.60
2019-02-14T10:36:01.553Z,70.30
2019-02-14T10:38:40.378Z,71.20
2019-02-14T10:41:20.720Z,70.10
2019-02-14T10:43:59.671Z,69.90
2019-02-14T10:46:38.184Z,70.50
2019-02-14T10:49:17.372Z,71.00
2019-02-14T10:51:56.268Z,71.30
2019-02-14T10:54:35.239Z,72.50
2019-02-14T10:57:14.585Z,73.50
2019-02-14T10:59:54.258Z,75.40
2019-02-14T11:02:33.278Z,76.20
2019-02-14T11:05:12.143Z,76.90
2019-02-14T11:07:51.242Z,76.90
2019-02-14T11:10:30.247Z,76.60
2019-02-14T11:13:09.224Z,77.00
2019-02-14T11:15:47.970Z,76.30
2019-02-14T11:18:26.978Z,76.90
2019-02-14T11:21:05.472Z,75.80
2019-02-14T11:23:44.379Z,79.60
2019-02-14T11:26:23.128Z,78.40
2019-02-14T11:29:01.988Z,78.90
2019-02-14T11:31:40.647Z,78.70
2019-02-14T11:34:19.884Z,79.70
2019-02-14T11:36:57.958Z,79.90
2019-02-14T11:39:37.185Z,78.90
2019-02-14T11:42:15.783Z,82.00
2019-02-14T11:44:54.621Z,80.50
2019-02-14T11:47:32.984Z,80.50
2019-02-14T11:50:12.366Z,79.60
2019-02-14T11:52:51.084Z,79.80
2019-02-14T11:55:30.185Z,81.10
2019-02-14T11:58:08.853Z,80.30
2019-02-14T12:00:47.556Z,81.70
2019-02-14T12:03:26.204Z,81.30
2019-02-14T12:06:27.717Z,80.50
2019-02-14T12:09:08.058Z,81.20
2019-02-14T12:11:46.988Z,81.60
2019-02-14T12:14:25.827Z,82.50
2019-02-14T12:17:04.424Z,83.90
2019-02-14T12:19:43.266Z,84.10
2019-02-14T12:22:21.970Z,86.00
2019-02-14T12:25:03.658Z,85.90
2019-02-14T12:27:42.234Z,86.60
2019-02-14T12:30:21.600Z,87.40
2019-02-14T12:33:00.119Z,87.10
2019-02-14T12:35:39.221Z,87.20
2019-02-14T12:38:17.731Z,87.80
2019-02-14T12:40:56.641Z,86.40
2019-02-14T12:43:35.055Z,87.90
2019-02-14T12:46:13.779Z,88.30
2019-02-14T12:48:52.301Z,88.00
2019-02-14T12:51:31.170Z,87.80
2019-02-14T12:54:09.561Z,89.00
2019-02-14T12:56:48.901Z,90.10
2019-02-14T12:59:27.704Z,89.90
2019-02-14T13:02:06.633Z,90.10
2019-02-14T13:04:45.626Z,90.30
2019-02-14T13:07:24.325Z,90.10
2019-02-14T13:10:03.325Z,90.60
2019-02-14T13:12:42.099Z,91.40
2019-02-14T13:15:22.951Z,92.60
2019-02-14T13:18:01.893Z,93.10
2019-02-14T13:20:40.943Z,93.80
2019-02-14T13:23:19.704Z,92.40
2019-02-14T13:25:58.782Z,92.10
2019-02-14T13:28:37.477Z,92.30
2019-02-14T13:31:16.308Z,93.90
2019-02-14T13:33:54.457Z,93.50
2019-02-14T13:36:33.591Z,93.60
2019-02-14T13:39:12.913Z,93.90
2019-02-14T13:41:51.992Z,94.60
2019-02-14T13:44:30.751Z,94.80
2019-02-14T13:47:09.240Z,94.70
2019-02-14T13:49:48.074Z,94.00
2019-02-14T13:52:26.681Z,95.00
2019-02-14T13:55:05.195Z,95.80
2019-02-14T13:57:44.130Z,95.70
2019-02-14T14:00:25.422Z,95.10
2019-02-14T14:03:04.221Z,95.70
2019-02-14T14:05:43.009Z,96.40
2019-02-14T14:08:21.961Z,95.90
2019-02-14T14:11:00.722Z,96.10
2019-02-14T14:13:39.356Z,96.60
2019-02-14T14:16:17.916Z,97.00
2019-02-14T14:18:56.837Z,98.70
2019-02-14T14:21:35.537Z,97.90
2019-02-14T14:24:13.989Z,98.20
2019-02-14T14:26:53.502Z,98.20
2019-02-14T14:29:32.293Z,98.40
2019-02-14T14:32:10.948Z,98.80
2019-02-14T14:34:49.617Z,98.40
2019-02-14T14:37:28.370Z,98.10
2019-02-14T14:40:06.915Z,98.70
2019-02-14T14:43:07.281Z,99.60
2019-02-14T14:46:03.947Z,99.90
2019-02-14T14:48:45.111Z,99.90
2019-02-14T14:51:23.527Z,99.80
2019-02-14T14:54:02.454Z,99.90
2019-02-14T14:56:40.962Z,99.90
2019-02-14T14:59:19.823Z,99.90
2019-02-14T15:01:58.475Z,99.90
2019-02-14T15:04:37.261Z,99.90
2019-02-14T15:07:16.397Z,99.90
2019-02-14T15:09:57.539Z,99.90
2019-02-14T15:12:35.488Z,99.90
2019-02-14T15:15:14.745Z,99.90
2019-02-14T15:17:53.525Z,99.90
2019-02-14T15:20:32.647Z,99.90
2019-02-14T15:23:11.303Z,99.90
2019-02-14T15:25:50.481Z,99.90
2019-02-14T15:28:29.809Z,99.90
2019-02-14T15:31:09.068Z,99.90
2019-02-14T15:33:47.968Z,99.90
2019-02-14T15:36:28.277Z,99.90
2019-02-14T15:39:08.328Z,99.90
2019-02-14T15:41:47.423Z,99.90
2019-02-14T15:44:26.469Z,99.90
2019-02-14T15:47:05.586Z,99.90
2019-02-14T15:49:44.774Z,99.90
2019-02-14T15:52:23.896Z,99.90
2019-02-14T15:55:02.514Z,99.90
2019-02-14T15:57:42.891Z,99.90
2019-02-14T16:00:21.531Z,99.90
2019-02-14T16:03:00.616Z,99.90
2019-02-14T16:05:40.331Z,99.90
2019-02-14T16:08:21.804Z,99.90
2019-02-14T16:10:59.262Z,99.90
2019-02-14T16:13:38.533Z,99.90
2019-02-14T16:16:17.426Z,99.90
2019-02-14T16:18:56.973Z,99.90
2019-02-14T16:21:36.555Z,99.90
2019-02-14T16:24:18.546Z,99.90
2019-02-14T16:26:59.249Z,99.90
2019-02-14T16:29:40.048Z,99.90
2019-02-14T16:32:19.014Z,99.90
2019-02-14T16:34:58.831Z,99.90
2019-02-14T16:37:37.692Z,99.90
2019-02-14T16:40:17.176Z,99.90
2019-02-14T16:42:58.647Z,99.90
2019-02-14T16:45:37.586Z,99.90
2019-02-14T16:48:16.618Z,99.90
2019-02-14T16:50:55.685Z,99.90
2019-02-14T16:53:34.786Z,99.90
2019-02-14T16:56:14.218Z,99.90
2019-02-14T17:01:49.031Z,99.90
2019-02-14T17:04:28.914Z,99.90
2019-02-14T17:07:07.937Z,99.90
2019-02-14T17:09:47.578Z,99.90
2019-02-14T17:12:26.333Z,99.90
2019-02-14T17:15:05.480Z,99.90
2019-02-14T17:17:45.118Z,99.90
2019-02-14T17:20:23.743Z,99.90
2019-02-14T17:23:02.531Z,99.90
2019-02-14T17:25:41.646Z,99.90
2019-02-14T17:28:20.420Z,99.90
2019-02-14T17:31:02.597Z,99.90
2019-02-14T17:33:41.509Z,99.90
2019-02-14T17:36:20.321Z,99.90
2019-02-14T17:38:59.482Z,99.90
2019-02-14T17:41:38.225Z,99.90
2019-02-14T17:44:16.895Z,99.90
2019-02-14T17:46:55.456Z,99.90
2019-02-14T17:49:34.120Z,99.90
2019-02-14T17:52:13.012Z,99.90
2019-02-14T17:54:51.754Z,99.90
2019-02-14T17:57:30.840Z,99.90
2019-02-14T18:00:10.501Z,99.90
2019-02-14T18:02:49.363Z,99.90
2019-02-14T18:05:28.203Z,99.90
2019-02-14T18:08:07.091Z,99.90
2019-02-14T18:10:54.555Z,99.90
2019-02-14T18:13:25.973Z,99.90
2019-02-14T18:16:04.937Z,99.90
2019-02-14T18:18:44.204Z,99.90
2019-02-14T18:21:23.022Z,99.90
2019-02-14T18:24:02.010Z,99.90
2019-02-14T18:26:40.428Z,99.90
2019-02-14T18:29:19.211Z,99.90
2019-02-14T18:31:58.677Z,99.90
2019-02-14T18:34:37.088Z,99.90
2019-02-14T18:37:15.974Z,99.90
2019-02-14T18:39:54.551Z,99.90
2019-02-14T18:42:33.691Z,99.90
2019-02-14T18:45:14.046Z,99.90
2019-02-14T18:47:53.265Z,99.90
2019-02-14T18:50:32.036Z,99.90
2019-02-14T18:53:11.045Z,99.90
2019-02-14T18:55:49.637Z,99.90
2019-02-14T18:58:28.643Z,99.90
2019-02-14T19:01:07.364Z,99.90
2019-02-14T19:03:45.927Z,99.90
2019-02-14T19:06:24.881Z,99.90
2019-02-14T19:09:03.784Z,99.90
2019-02-14T19:11:45.774Z,99.90
2019-02-14T19:14:25.847Z,99.90
2019-02-14T19:17:05.332Z,99.90
2019-02-14T19:19:44.221Z,99.90
2019-02-14T19:22:24.531Z,99.90
2019-02-14T19:25:03.216Z,99.90
2019-02-14T19:27:42.071Z,99.90
2019-02-14T19:30:21.102Z,99.90
2019-02-14T19:33:01.620Z,99.90
2019-02-14T19:35:40.500Z,99.90
2019-02-14T19:38:19.660Z,99.90
2019-02-14T19:40:58.179Z,99.90
2019-02-14T19:43:38.190Z,99.90
2019-02-14T19:46:17.186Z,99.90
2019-02-14T19:48:55.737Z,99.90
2019-02-14T19:51:34.404Z,99.90
2019-02-14T19:54:12.982Z,99.90
2019-02-14T19:56:51.769Z,99.90
2019-02-14T19:59:30.550Z,99.90
2019-02-14T20:02:09.262Z,99.90
2019-02-14T20:04:48.355Z,99.90
2019-02-14T20:07:27.181Z,99.90
2019-02-14T20:10:05.881Z,99.90
2019-02-14T20:12:44.501Z,99.90
2019-02-14T20:15:24.209Z,99.90
2019-02-14T20:18:02.967Z,99.90
2019-02-14T20:20:42.044Z,99.90
2019-02-14T20:23:20.609Z,99.90
2019-02-14T20:25:59.876Z,99.90
2019-02-14T20:28:38.754Z,99.90
2019-02-14T20:31:18.248Z,99.90
2019-02-14T20:33:57.772Z,99.90
2019-02-14T20:36:36.715Z,99.90
2019-02-14T20:39:15.545Z,99.90
2019-02-14T20:41:54.351Z,99.90
2019-02-14T20:44:33.103Z,99.90
2019-02-14T20:47:12.282Z,99.90
2019-02-14T20:49:51.230Z,99.90
2019-02-14T20:52:30.354Z,99.90
2019-02-14T20:55:08.943Z,99.90
2019-02-14T20:57:47.827Z,99.90
2019-02-14T21:00:34.453Z,99.90
2019-02-14T21:03:13.293Z,99.90
2019-02-14T21:05:52.264Z,99.90
2019-02-14T21:08:31.186Z,99.90
2019-02-14T21:11:10.171Z,99.90
2019-02-14T21:13:48.248Z,99.90
2019-02-14T21:16:27.287Z,99.90
2019-02-14T21:19:06.142Z,99.90
2019-02-14T21:21:44.986Z,99.90
2019-02-14T21:24:24.122Z,99.90
2019-02-14T21:27:02.833Z,99.90
2019-02-14T21:29:41.681Z,99.90
2019-02-14T21:32:20.397Z,99.90
2019-02-14T21:34:59.557Z,99.90
2019-02-14T21:37:38.891Z,99.90
2019-02-14T21:40:18.416Z,99.90
2019-02-14T21:42:58.060Z,99.90
2019-02-14T21:45:37.007Z,99.90
2019-02-14T21:48:15.731Z,99.90
2019-02-14T21:50:54.718Z,99.90
2019-02-14T21:53:33.970Z,99.90
2019-02-14T21:56:12.673Z,99.90
2019-02-14T21:58:51.617Z,99.90
2019-02-14T22:01:30.861Z,99.90
2019-02-14T22:04:09.413Z,99.90
2019-02-14T22:06:49.619Z,99.90
2019-02-14T22:09:28.510Z,99.90
2019-02-14T22:12:07.213Z,99.90
2019-02-14T22:14:46.622Z,99.90
2019-02-14T22:17:25.176Z,99.90
2019-02-14T22:20:04.081Z,99.90
2019-02-14T22:22:42.842Z,99.90
2019-02-14T22:25:21.327Z,99.90
2019-02-14T22:27:59.814Z,99.90
2019-02-14T22:30:39.567Z,99.90
2019-02-14T22:33:18.060Z,99.90
2019-02-14T22:35:58.083Z,99.90
2019-02-14T22:38:36.903Z,99.90
2019-02-14T22:41:15.998Z,99.90
2019-02-14T22:43:54.643Z,99.90
2019-02-14T22:46:33.576Z,99.90
2019-02-14T22:49:12.202Z,99.90
2019-02-14T22:51:51.329Z,99.90
2019-02-14T22:54:29.907Z,99.90
2019-02-14T22:57:08.884Z,99.90
2019-02-14T22:59:47.784Z,99.90
2019-02-14T23:02:26.902Z,99.90
2019-02-14T23:05:05.538Z,99.90
2019-02-14T23:07:44.103Z,99.90
2019-02-14T23:10:22.826Z,99.90
2019-02-14T23:13:02.118Z,99.90
2019-02-14T23:15:41.027Z,99.90
